Time;durP1;ratioP1;P1;durP2;ratioP2;P2;SDS_P1;SDS_P2;PMS_P1;PMS_P2;Temp;Humidity;BMP_temperature;BMP_pressure;BME280_temperature;BME280_humidity;BME280_pressure;Samples;Min_cycle;Max_cycle;Signal;HPM_P1;HPM_P2
2022/03/13 00:00:29;;;;;;;6.20;4.13;;;;;;;-145.18;100.00;47297.22;4951120;28;20852;-66
2022/03/13 00:02:55;;;;;;;6.87;3.23;;;;;;;-145.18;100.00;47291.38;4952453;28;20834;-66
2022/03/13 00:05:22;;;;;;;5.03;3.00;;;;;;;-145.18;100.00;47305.06;4970657;28;21152;-66
2022/03/13 00:07:48;;;;;;;4.60;3.43;;;;;;;-145.18;100.00;47320.69;4970098;28;20364;-66
2022/03/13 00:10:19;;;;;;;8.83;3.67;;;;;;;-145.18;100.00;47312.88;4971209;28;20342;-66
2022/03/13 00:12:48;;;;;;;6.53;4.27;;;;;;;-145.18;100.00;47301.16;4970267;28;20338;-66
2022/03/13 00:15:14;;;;;;;7.10;4.53;;;;;;;-145.18;100.00;47305.06;4970836;28;20686;-66
2022/03/13 00:17:40;;;;;;;9.57;4.63;;;;;;;-145.18;100.00;47326.53;4971083;28;20745;-66
2022/03/13 00:20:08;;;;;;;9.90;5.50;;;;;;;-145.18;100.00;47310.91;4952993;28;20769;-66
2022/03/13 00:22:35;;;;;;;8.70;5.37;;;;;;;-145.18;100.00;47312.88;4953266;28;20269;-66
2022/03/13 00:25:03;;;;;;;9.93;6.73;;;;;;;-145.18;100.00;47320.69;4970424;28;20257;-66
2022/03/13 00:27:34;;;;;;;8.50;6.00;;;;;;;-145.18;100.00;47322.63;4970213;28;20288;-66
2022/03/13 00:30:00;;;;;;;11.40;6.40;;;;;;;-145.18;100.00;47324.59;4970319;28;20835;-66
2022/03/13 00:32:25;;;;;;;10.47;7.13;;;;;;;-145.18;100.00;47334.34;4970334;28;20261;-66
2022/03/13 00:34:51;;;;;;;13.13;7.27;;;;;;;-145.18;100.00;47322.63;4970311;28;20261;-66
2022/03/13 00:37:17;;;;;;;12.03;6.93;;;;;;;-145.18;100.00;47303.09;4970690;28;20142;-66
2022/03/13 00:39:44;;;;;;;11.13;6.97;;;;;;;-145.18;100.00;47316.78;4970074;28;20043;-66
2022/03/13 00:42:12;;;;;;;10.43;7.27;;;;;;;-145.18;100.00;47316.78;4970000;28;20690;-66
2022/03/13 00:44:38;;;;;;;9.63;6.23;;;;;;;-145.18;100.00;47326.53;4970348;28;20280;-66
2022/03/13 00:47:05;;;;;;;11.37;6.60;;;;;;;-145.18;100.00;47330.44;4969395;28;20265;-66
2022/03/13 00:49:31;;;;;;;8.83;5.97;;;;;;;-145.18;100.00;47324.59;4970027;28;20491;-66
2022/03/13 00:51:59;;;;;;;9.60;6.43;;;;;;;-145.18;100.00;47326.53;4969560;28;20280;-66
2022/03/13 00:54:25;;;;;;;8.97;6.23;;;;;;;-145.18;100.00;47310.91;4952767;28;20428;-66
2022/03/13 00:56:50;;;;;;;10.10;6.27;;;;;;;-145.18;100.00;47320.69;4970307;28;20268;-66
2022/03/13 00:59:16;;;;;;;9.87;6.00;;;;;;;-145.18;100.00;47308.97;4969692;28;20043;-66
2022/03/13 01:01:42;;;;;;;9.53;6.27;;;;;;;-145.18;100.00;47328.50;4968587;28;20050;-66
2022/03/13 01:04:07;;;;;;;15.03;7.90;;;;;;;-145.18;100.00;47322.63;4969578;28;20046;-66
2022/03/13 01:06:33;;;;;;;8.70;5.57;;;;;;;-145.18;100.00;47332.41;4969336;28;20109;-66
2022/03/13 01:08:58;;;;;;;7.70;6.23;;;;;;;-145.18;100.00;47338.25;4969665;28;20169;-66
2022/03/13 01:11:23;;;;;;;9.10;5.60;;;;;;;-145.18;100.00;47322.63;4969972;28;20074;-66
2022/03/13 01:13:50;;;;;;;6.77;5.03;;;;;;;-145.18;100.00;47320.69;4969924;28;20042;-66
2022/03/13 01:16:20;;;;;;;6.60;4.53;;;;;;;-145.18;100.00;47312.88;4969259;28;20456;-66
2022/03/13 01:18:51;;;;;;;7.40;3.43;;;;;;;-145.18;100.00;47316.78;4969662;28;20315;-66
2022/03/13 01:21:17;;;;;;;5.87;3.70;;;;;;;-145.18;100.00;47330.44;4969027;28;20301;-66
2022/03/13 01:23:58;;;;;;;4.30;3.00;;;;;;;-145.18;100.00;47328.50;4969264;28;20279;-66
2022/03/13 01:26:23;;;;;;;4.97;3.03;;;;;;;-145.18;100.00;47328.50;4968895;28;20495;-66
2022/03/13 01:28:50;;;;;;;4.80;3.03;;;;;;;-145.18;100.00;47314.81;4969469;28;20281;-66
2022/03/13 01:31:19;;;;;;;3.20;2.40;;;;;;;-145.18;100.00;47328.50;4968833;28;20043;-66
2022/03/13 01:33:44;;;;;;;3.87;2.30;;;;;;;-145.18;100.00;47318.72;4968975;28;20914;-66
2022/03/13 01:36:11;;;;;;;3.23;2.03;;;;;;;-145.18;100.00;47312.88;4969442;28;20277;-66
2022/03/13 01:38:37;;;;;;;3.80;2.50;;;;;;;-145.18;100.00;47320.69;4968986;28;20042;-66
2022/03/13 01:41:02;;;;;;;3.60;2.33;;;;;;;-145.18;100.00;47314.81;4969884;28;20396;-66
2022/03/13 01:43:30;;;;;;;4.17;2.77;;;;;;;-145.18;100.00;47324.59;4968332;28;20046;-66
2022/03/13 01:45:58;;;;;;;4.17;2.70;;;;;;;-145.18;100.00;47355.84;4968659;28;20047;-66
2022/03/13 01:48:24;;;;;;;4.63;2.37;;;;;;;-145.18;100.00;47324.59;4968537;28;20281;-66
2022/03/13 01:50:50;;;;;;;3.83;2.57;;;;;;;-145.18;100.00;47355.84;4968876;28;20280;-66
2022/03/13 01:53:16;;;;;;;4.53;2.10;;;;;;;-145.18;100.00;47342.16;4968565;28;20291;-66
2022/03/13 01:55:41;;;;;;;4.73;2.50;;;;;;;-145.18;100.00;47342.16;4969018;28;20039;-66
2022/03/13 01:58:07;;;;;;;4.67;2.53;;;;;;;-145.18;100.00;47355.84;4969317;28;20133;-66
2022/03/13 02:03:18;;;;;;;5.10;2.83;;;;;;;-145.18;100.00;47355.84;4958544;23;20051;-67
2022/03/13 02:05:45;;;;;;;5.53;3.43;;;;;;;-145.18;100.00;47359.75;4949399;28;20289;-67
2022/03/13 02:08:13;;;;;;;7.70;3.47;;;;;;;-145.18;100.00;47348.03;4949221;28;20269;-67
2022/03/13 02:10:38;;;;;;;5.97;3.20;;;;;;;-145.18;100.00;47359.75;4949235;28;20698;-67
2022/03/13 02:13:04;;;;;;;4.80;3.20;;;;;;;-145.18;100.00;47353.88;4932062;28;20277;-67
2022/03/13 02:15:32;;;;;;;6.77;3.43;;;;;;;-145.18;100.00;47348.03;4949735;28;20050;-67
2022/03/13 02:18:00;;;;;;;6.57;3.30;;;;;;;-145.18;100.00;47371.47;4949132;28;20043;-67
2022/03/13 02:20:27;;;;;;;7.50;4.47;;;;;;;-145.18;100.00;47371.47;4949279;28;20385;-67
2022/03/13 02:22:58;;;;;;;6.23;4.07;;;;;;;-145.18;100.00;47344.13;4949777;28;20357;-67
2022/03/13 02:25:24;;;;;;;4.57;3.37;;;;;;;-145.18;100.00;47379.28;4949252;28;20356;-67
2022/03/13 02:27:49;;;;;;;7.60;4.30;;;;;;;-145.18;100.00;47373.44;4948634;28;20356;-67
2022/03/13 02:30:15;;;;;;;8.10;4.77;;;;;;;-145.18;100.00;47369.53;4949690;28;20393;-67
2022/03/13 02:32:40;;;;;;;7.77;4.80;;;;;;;-145.18;100.00;47389.06;4949067;28;20046;-67
2022/03/13 02:35:07;;;;;;;7.80;4.63;;;;;;;-145.18;100.00;47365.63;4949477;28;20047;-67
2022/03/13 02:37:40;;;;;;;8.77;5.90;;;;;;;-145.18;100.00;47375.38;4949685;28;20077;-67
2022/03/13 02:40:13;;;;;;;7.83;4.80;;;;;;;-145.18;100.00;47361.72;4949491;28;20777;-67
2022/03/13 02:42:38;;;;;;;9.33;5.90;;;;;;;-145.18;100.00;47375.38;4948950;28;20280;-67
2022/03/13 02:45:04;;;;;;;11.27;5.83;;;;;;;-145.18;100.00;47391.00;4949112;28;20273;-67
2022/03/13 02:47:29;;;;;;;8.47;6.20;;;;;;;-145.18;100.00;47408.59;4948610;28;20051;-67
2022/03/13 02:49:55;;;;;;;8.87;6.03;;;;;;;-145.18;100.00;47394.91;4931715;28;20070;-67
2022/03/13 02:52:21;;;;;;;11.70;6.90;;;;;;;-145.18;100.00;47394.91;4949048;28;20075;-67
2022/03/13 02:54:47;;;;;;;13.30;7.10;;;;;;;-145.18;100.00;47398.81;4949736;28;20051;-67
2022/03/13 02:57:14;;;;;;;10.17;6.37;;;;;;;-145.18;100.00;47391.00;4948668;28;20058;-67
2022/03/13 02:59:40;;;;;;;10.57;6.80;;;;;;;-145.18;100.00;47422.28;4951595;28;20411;-67
2022/03/13 03:02:06;;;;;;;12.03;7.43;;;;;;;-145.18;100.00;47402.72;4942123;28;20298;-66
2022/03/13 03:04:31;;;;;;;11.50;6.67;;;;;;;-145.18;100.00;47422.28;4933927;29;20571;-67
2022/03/13 03:07:02;;;;;;;9.40;6.07;;;;;;;-145.18;100.00;47394.91;4933422;29;20048;-67
2022/03/13 03:09:29;;;;;;;10.17;6.43;;;;;;;-145.18;100.00;47428.13;4933593;29;20055;-67
2022/03/13 03:11:57;;;;;;;11.17;6.40;;;;;;;-145.18;100.00;47402.72;4933328;29;20274;-67
2022/03/13 03:14:23;;;;;;;8.57;6.03;;;;;;;-145.18;100.00;47416.41;4933639;29;20783;-67
2022/03/13 03:16:49;;;;;;;11.43;6.80;;;;;;;-145.18;100.00;47410.56;4933986;29;20397;-67
2022/03/13 03:19:14;;;;;;;10.00;6.53;;;;;;;-145.18;100.00;47430.09;4900597;29;20723;-67
2022/03/13 03:21:40;;;;;;;9.30;6.07;;;;;;;-145.18;100.00;47420.31;4933294;29;20043;-67
2022/03/13 03:24:14;;;;;;;9.13;5.83;;;;;;;-145.18;100.00;47418.38;4933203;29;20164;-67
2022/03/13 03:26:40;;;;;;;9.50;6.50;;;;;;;-145.18;100.00;47359.75;4933248;29;20531;-67
2022/03/13 03:29:06;;;;;;;10.63;5.53;;;;;;;-145.18;100.00;47396.88;4933044;29;20270;-67
2022/03/13 03:31:31;;;;;;;7.90;5.37;;;;;;;-145.18;100.00;47365.63;4933587;29;20130;-67
2022/03/13 03:33:56;;;;;;;9.07;5.87;;;;;;;-145.18;100.00;47340.22;4932581;29;20586;-67
2022/03/13 03:36:22;;;;;;;8.20;5.50;;;;;;;-145.18;100.00;47334.34;4934110;29;20051;-67
2022/03/13 03:38:47;;;;;;;8.07;5.53;;;;;;;-145.18;100.00;47328.50;4932795;29;20194;-67
2022/03/13 03:41:13;;;;;;;7.73;4.97;;;;;;;-145.18;100.00;47305.06;4933147;29;20050;-67
2022/03/13 03:43:38;;;;;;;8.50;5.13;;;;;;;-145.18;100.00;47242.53;4915410;29;20039;-67
2022/03/13 03:46:03;;;;;;;7.73;5.40;;;;;;;-145.18;100.00;47244.50;4933029;29;20075;-67
2022/03/13 03:48:29;;;;;;;7.57;5.07;;;;;;;-145.18;100.00;47207.38;4932909;29;20047;-67
2022/03/13 03:50:55;;;;;;;8.30;5.37;;;;;;;-145.18;100.00;47139.00;4932980;29;20054;-67
2022/03/13 03:53:20;;;;;;;7.93;5.07;;;;;;;-145.18;100.00;47187.84;4932815;29;20279;-67
2022/03/13 03:55:45;;;;;;;7.83;5.20;;;;;;;-145.18;100.00;47080.38;4932889;29;20512;-67
2022/03/13 03:58:12;;;;;;;8.77;5.20;;;;;;;-145.18;100.00;47013.97;4915166;29;20048;-67
2022/03/13 04:00:38;;;;;;;7.90;4.83;;;;;;;-145.18;100.00;46955.34;4932727;29;20427;-67
2022/03/13 04:03:03;;;;;;;11.77;4.90;;;;;;;-145.18;100.00;46902.63;4932678;29;20286;-67
2022/03/13 04:05:29;;;;;;;9.33;4.77;;;;;;;-145.18;100.00;46847.91;4933374;29;20043;-67
2022/03/13 04:07:54;;;;;;;9.13;4.93;;;;;;;-145.18;100.00;46804.94;4931299;29;20045;-67
2022/03/13 04:10:20;;;;;;;7.90;4.77;;;;;;;-145.18;100.00;46775.66;4932197;29;20734;-67
2022/03/13 04:12:45;;;;;;;8.50;5.33;;;;;;;-145.18;100.00;46746.34;4932199;29;20139;-67
2022/03/13 04:15:10;;;;;;;6.57;4.50;;;;;;;-145.18;100.00;46744.38;4932427;29;20059;-67
2022/03/13 04:17:36;;;;;;;7.53;5.17;;;;;;;-145.18;100.00;46726.81;4932696;29;20070;-67
2022/03/13 04:20:03;;;;;;;6.97;4.83;;;;;;;-145.18;100.00;46709.22;4932249;29;20036;-67
2022/03/13 04:22:29;;;;;;;7.37;4.73;;;;;;;-145.18;100.00;46676.03;4931001;29;20099;-67
2022/03/13 04:24:54;;;;;;;9.43;5.20;;;;;;;-145.18;100.00;46666.25;4932049;29;20274;-67
2022/03/13 04:27:20;;;;;;;9.10;5.50;;;;;;;-145.18;100.00;46697.50;4931723;29;20075;-67
2022/03/13 04:29:45;;;;;;;9.20;5.90;;;;;;;-145.18;100.00;46701.41;4931988;29;20039;-67
2022/03/13 04:32:12;;;;;;;11.40;6.27;;;;;;;-145.18;100.00;46670.16;4932235;29;20122;-67
2022/03/13 04:34:37;;;;;;;8.93;6.07;;;;;;;-145.18;100.00;46664.31;4932576;29;20132;-66
2022/03/13 04:37:03;;;;;;;10.73;6.30;;;;;;;-145.18;100.00;46683.84;4932102;29;20345;-67
2022/03/13 04:39:35;;;;;;;9.47;6.53;;;;;;;-145.18;100.00;46703.38;4931815;29;20058;-67
2022/03/13 04:42:05;;;;;;;12.93;7.37;;;;;;;-145.18;100.00;46656.50;4931986;29;20278;-67
2022/03/13 04:44:31;;;;;;;9.83;7.03;;;;;;;-145.18;100.00;46633.06;4931757;29;20326;-67
2022/03/13 04:46:56;;;;;;;12.67;7.33;;;;;;;-145.18;100.00;46599.84;4931650;29;20357;-67
2022/03/13 04:49:21;;;;;;;12.07;7.20;;;;;;;-145.18;100.00;46597.88;4931820;29;20335;-67
2022/03/13 04:51:47;;;;;;;10.87;7.43;;;;;;;-145.18;100.00;46588.13;4931630;29;20063;-67
2022/03/13 04:54:12;;;;;;;14.43;8.10;;;;;;;-145.18;100.00;46570.53;4932154;29;20501;-67
2022/03/13 04:56:38;;;;;;;10.80;7.17;;;;;;;-145.18;100.00;46568.59;4931819;29;20047;-67
2022/03/13 04:59:06;;;;;;;11.77;7.77;;;;;;;-145.18;100.00;46582.25;4931512;29;20043;-67
2022/03/13 05:01:31;;;;;;;10.93;7.47;;;;;;;-145.18;100.00;46574.44;4931990;29;20134;-67
2022/03/13 05:03:57;;;;;;;14.03;7.50;;;;;;;-145.18;100.00;46568.59;4930692;29;20715;-67
2022/03/13 05:06:22;;;;;;;12.80;8.70;;;;;;;-145.18;100.00;46570.53;4931397;29;20048;-67
2022/03/13 05:08:49;;;;;;;13.67;8.53;;;;;;;-145.18;100.00;46574.44;4931371;29;20690;-67
2022/03/13 05:11:15;;;;;;;14.83;8.43;;;;;;;-145.18;100.00;46576.41;4931585;29;20067;-67
2022/03/13 05:13:41;;;;;;;13.10;8.80;;;;;;;-145.18;100.00;46582.25;4931149;29;20775;-67
2022/03/13 05:16:06;;;;;;;16.40;9.40;;;;;;;-145.18;100.00;46570.53;4931272;28;20286;-67
2022/03/13 05:18:32;;;;;;;15.03;9.27;;;;;;;-145.18;100.00;46570.53;4930998;28;20373;-67
2022/03/13 05:20:57;;;;;;;14.90;9.67;;;;;;;-145.18;100.00;46570.53;4930720;28;20046;-67
2022/03/13 05:23:23;;;;;;;16.37;9.80;;;;;;;-145.18;100.00;46566.63;4931660;28;20051;-67
2022/03/13 05:25:49;;;;;;;16.67;9.90;;;;;;;-145.18;100.00;46566.63;4930912;28;20044;-67
2022/03/13 05:28:15;;;;;;;15.43;10.03;;;;;;;-145.18;100.00;46578.34;4930923;28;20278;-67
2022/03/13 05:30:42;;;;;;;16.23;9.93;;;;;;;-145.18;100.00;46570.53;4929727;28;20043;-67
2022/03/13 05:33:07;;;;;;;16.17;11.13;;;;;;;-145.18;100.00;46558.81;4930836;28;20788;-67
2022/03/13 05:35:33;;;;;;;16.73;11.83;;;;;;;-145.18;100.00;46566.63;4931066;28;20274;-67
2022/03/13 05:37:59;;;;;;;19.23;12.17;;;;;;;-145.18;100.00;46572.50;4925887;28;20047;-67
2022/03/13 05:40:25;;;;;;;19.40;12.00;;;;;;;-145.18;100.00;46566.63;4927646;29;20047;-67
2022/03/13 05:42:55;;;;;;;20.47;13.37;;;;;;;-145.18;100.00;46578.34;4926044;29;20091;-67
2022/03/13 05:45:22;;;;;;;21.37;13.53;;;;;;;-145.18;100.00;46593.97;4935750;28;20039;-67
2022/03/13 05:47:54;;;;;;;22.67;14.17;;;;;;;-145.18;100.00;46588.13;4929751;28;20289;-67
2022/03/13 05:50:21;;;;;;;23.23;14.90;;;;;;;-145.18;100.00;46593.97;4930612;29;20350;-67
2022/03/13 05:52:48;;;;;;;23.47;15.70;;;;;;;-145.18;100.00;46590.06;4930076;29;20278;-67
2022/03/13 05:55:15;;;;;;;26.17;15.47;;;;;;;-145.18;100.00;46609.59;4930786;29;20654;-67
2022/03/13 05:57:40;;;;;;;24.67;15.30;;;;;;;-145.18;100.00;46605.69;4930037;29;20333;-67
2022/03/13 06:00:09;;;;;;;26.03;16.13;;;;;;;-145.18;100.00;46615.47;4913675;29;20270;-66
2022/03/13 06:02:36;;;;;;;26.70;16.77;;;;;;;-145.18;100.00;46633.06;4930432;29;20055;-67
2022/03/13 06:05:02;;;;;;;27.20;16.97;;;;;;;-145.18;100.00;46636.94;4948606;29;20268;-67
2022/03/13 06:07:28;;;;;;;29.93;17.30;;;;;;;-145.18;100.00;46644.78;4949422;29;20281;-67
2022/03/13 06:09:54;;;;;;;28.17;16.20;;;;;;;-145.18;100.00;46654.53;4949045;29;20047;-67
2022/03/13 06:12:20;;;;;;;27.30;17.10;;;;;;;-145.18;100.00;46646.72;4949315;29;20043;-67
2022/03/13 06:14:45;;;;;;;30.17;17.23;;;;;;;-145.18;100.00;46640.88;4949475;29;20301;-67
2022/03/13 06:17:10;;;;;;;26.50;17.30;;;;;;;-145.18;100.00;46621.31;4944405;28;20050;-67
2022/03/13 06:19:42;;;;;;;26.57;17.10;;;;;;;-145.18;100.00;46648.69;4930520;28;20420;-67
2022/03/13 06:22:08;;;;;;;27.73;17.17;;;;;;;-145.18;100.00;46648.69;4930734;28;20047;-67
2022/03/13 06:24:34;;;;;;;27.80;17.87;;;;;;;-145.18;100.00;46633.06;4929585;28;20286;-66
2022/03/13 06:27:00;;;;;;;28.70;17.80;;;;;;;-145.18;100.00;46652.59;4929702;28;20050;-67
2022/03/13 06:29:25;;;;;;;28.03;18.43;;;;;;;-145.18;100.00;46644.78;4929945;28;20274;-67
2022/03/13 06:31:52;;;;;;;27.60;17.07;;;;;;;-145.18;100.00;46654.53;4929146;29;20051;-67
2022/03/13 06:34:18;;;;;;;29.63;18.13;;;;;;;-145.18;100.00;46654.53;4928351;28;20062;-67
2022/03/13 06:36:46;;;;;;;28.73;18.17;;;;;;;-145.18;100.00;46677.97;4933296;28;20266;-67
2022/03/13 06:39:11;;;;;;;31.83;17.53;;;;;;;-145.18;100.00;46668.22;4929503;29;20115;-67
2022/03/13 06:41:38;;;;;;;30.30;19.37;;;;;;;-145.18;100.00;46666.25;4930401;29;20290;-67
2022/03/13 06:44:05;;;;;;;29.23;18.77;;;;;;;-145.18;100.00;46683.84;4909293;29;20048;-67
2022/03/13 06:46:30;;;;;;;27.33;17.10;;;;;;;-145.18;100.00;46666.25;4911054;29;20286;-67
2022/03/13 06:48:55;;;;;;;33.70;19.27;;;;;;;-145.18;100.00;46670.16;4910481;29;20368;-67
2022/03/13 06:51:21;;;;;;;32.37;18.07;;;;;;;-145.18;100.00;46691.66;4911480;29;20048;-67
2022/03/13 06:53:46;;;;;;;26.70;16.93;;;;;;;-145.18;100.00;46693.59;4910918;29;20048;-67
2022/03/13 06:56:12;;;;;;;27.53;17.70;;;;;;;-145.18;100.00;46711.19;4911277;29;20505;-67
2022/03/13 06:58:39;;;;;;;28.37;17.50;;;;;;;-145.18;100.00;46697.50;4910579;29;20059;-67
2022/03/13 07:01:05;;;;;;;31.90;18.60;;;;;;;-145.18;100.00;46668.22;4910874;29;20499;-66
2022/03/13 07:03:31;;;;;;;31.53;17.97;;;;;;;-145.18;100.00;46695.56;4894446;28;20427;-67
2022/03/13 07:05:56;;;;;;;25.13;17.17;;;;;;;-145.18;100.00;46679.94;4916641;28;20771;-67
2022/03/13 07:08:21;;;;;;;27.07;16.77;;;;;;;-145.18;100.00;46670.16;4927979;28;20229;-67
2022/03/13 07:10:47;;;;;;;30.17;17.33;;;;;;;-145.18;100.00;46662.34;4929528;28;20063;-67
2022/03/13 07:13:16;;;;;;;29.53;18.00;;;;;;;-145.18;100.00;46681.88;4887370;29;20502;-67
2022/03/13 07:15:42;;;;;;;27.70;16.87;;;;;;;-145.18;100.00;46666.25;4910749;29;20096;-67
2022/03/13 07:18:07;;;;;;;26.90;17.27;;;;;;;-145.18;100.00;46652.59;4910572;29;20287;-67
2022/03/13 07:20:33;;;;;;;28.37;17.80;;;;;;;-145.18;100.00;46670.16;4911020;29;20107;-67
2022/03/13 07:22:58;;;;;;;28.93;17.70;;;;;;;-145.18;100.00;46691.66;4910470;29;20070;-67
2022/03/13 07:25:24;;;;;;;28.30;16.80;;;;;;;-145.18;100.00;46679.94;4911290;29;20047;-67
2022/03/13 07:27:49;;;;;;;29.63;17.17;;;;;;;-145.18;100.00;46687.75;4910104;29;20052;-67
2022/03/13 07:30:15;;;;;;;28.93;16.63;;;;;;;-145.18;100.00;46711.19;4910746;29;20103;-67
2022/03/13 07:32:41;;;;;;;27.87;16.80;;;;;;;-145.18;100.00;46693.59;4909869;29;20131;-67
2022/03/13 07:35:08;;;;;;;24.00;16.03;;;;;;;-145.18;100.00;46711.19;4910817;29;20412;-67
2022/03/13 07:37:34;;;;;;;26.53;16.30;;;;;;;-145.18;100.00;46701.41;4910220;29;20283;-67
2022/03/13 07:40:00;;;;;;;27.40;17.70;;;;;;;-145.18;100.00;46728.75;4915965;29;20282;-67
2022/03/13 07:42:26;;;;;;;26.53;17.27;;;;;;;-145.18;100.00;46736.56;4929680;29;20123;-67
2022/03/13 07:44:52;;;;;;;29.67;16.77;;;;;;;-145.18;100.00;46738.53;4930207;29;20850;-66
2022/03/13 07:47:18;;;;;;;28.57;16.27;;;;;;;-145.18;100.00;46701.41;4933319;29;20504;-67
2022/03/13 07:49:43;;;;;;;27.43;17.23;;;;;;;-145.18;100.00;46744.38;4926024;28;20314;-67
2022/03/13 07:52:09;;;;;;;27.77;16.23;;;;;;;-145.18;100.00;46801.03;4923178;28;20694;-66
2022/03/13 07:54:34;;;;;;;26.67;16.60;;;;;;;-145.18;100.00;46957.31;4914071;29;20076;-67
2022/03/13 07:57:00;;;;;;;24.30;15.97;;;;;;;-145.18;100.00;47160.47;4913587;29;20511;-67
2022/03/13 07:59:25;;;;;;;25.70;16.67;;;;;;;-145.18;100.00;47203.47;4917908;28;20048;-67
2022/03/13 08:01:51;;;;;;;30.10;16.37;;;;;;;-145.18;100.00;47357.78;4913170;29;20044;-67
2022/03/13 08:04:16;;;;;;;24.47;15.77;;;;;;;-145.18;100.00;47256.22;4912734;29;20103;-66
2022/03/13 08:06:42;;;;;;;26.00;15.97;;;;;;;-145.18;100.00;47381.25;4914684;28;20059;-68
2022/03/13 08:09:08;;;;;;;30.60;16.20;;;;;;;-145.18;100.00;47394.91;4922207;28;20074;-67
2022/03/13 08:11:34;;;;;;;24.97;16.17;;;;;;;-145.18;100.00;47402.72;4920862;28;20375;-67
2022/03/13 08:14:04;;;;;;;23.43;16.07;;;;;;;-145.18;100.00;47416.41;4924858;29;20369;-67
2022/03/13 08:16:29;;;;;;;26.63;17.10;;;;;;;-145.18;100.00;47367.56;4922055;29;20826;-67
2022/03/13 08:18:55;;;;;;;26.30;16.30;;;;;;;-145.18;100.00;47351.94;4920972;29;20282;-67
2022/03/13 08:21:21;;;;;;;22.93;15.83;;;;;;;-145.18;100.00;47371.47;4926134;29;20695;-67
2022/03/13 08:23:46;;;;;;;26.10;15.43;;;;;;;-145.18;100.00;47412.50;4925517;29;20044;-67
2022/03/13 08:26:12;;;;;;;30.23;16.43;;;;;;;-145.18;100.00;47392.97;4926724;28;20060;-67
2022/03/13 08:28:44;;;;;;;26.77;15.63;;;;;;;-145.18;100.00;47371.47;4935731;28;20436;-67
2022/03/13 08:31:10;;;;;;;27.03;16.57;;;;;;;-145.18;100.00;47391.00;4915203;29;20039;-67
2022/03/13 08:33:36;;;;;;;24.93;15.90;;;;;;;-145.18;100.00;47406.63;4912491;29;20973;-67
2022/03/13 08:36:01;;;;;;;24.70;16.43;;;;;;;-145.18;100.00;47371.47;4912886;29;20476;-67
2022/03/13 08:38:28;;;;;;;24.73;15.33;;;;;;;-145.18;100.00;47383.19;4911185;29;20072;-67
2022/03/13 08:40:54;;;;;;;26.20;16.17;;;;;;;-145.18;100.00;47387.09;4913590;29;20044;-67
2022/03/13 08:43:19;;;;;;;22.43;14.77;;;;;;;-145.18;100.00;47387.09;4931345;29;20289;-67
2022/03/13 08:45:45;;;;;;;30.13;16.87;;;;;;;-145.18;100.00;47377.34;4932392;29;20123;-67
2022/03/13 08:48:10;;;;;;;26.60;16.17;;;;;;;-145.18;100.00;47383.19;4930790;28;20051;-67
2022/03/13 08:50:35;;;;;;;21.33;14.47;;;;;;;-145.18;100.00;47340.22;4931527;28;20598;-67
2022/03/13 08:53:01;;;;;;;25.27;16.40;;;;;;;-145.18;100.00;47355.84;4933247;29;20138;-68
2022/03/13 08:55:27;;;;;;;26.27;16.63;;;;;;;-145.18;100.00;47318.72;4950296;28;20118;-67
2022/03/13 08:57:53;;;;;;;26.07;14.70;;;;;;;-145.18;100.00;47332.41;4942147;28;20052;-67
2022/03/13 09:00:21;;;;;;;23.30;15.77;;;;;;;-145.18;100.00;47305.06;4932115;28;20374;-67
2022/03/13 09:02:46;;;;;;;24.77;15.37;;;;;;;-145.18;100.00;47287.47;4930848;28;20058;-67
2022/03/13 09:05:12;;;;;;;24.83;16.27;;;;;;;-145.18;100.00;47283.56;4930377;28;20278;-67
2022/03/13 09:07:37;;;;;;;25.30;15.90;;;;;;;-145.18;100.00;47273.78;4931531;28;20055;-67
2022/03/13 09:10:06;;;;;;;26.90;15.67;;;;;;;-145.18;100.00;47279.66;4930692;28;20046;-67
2022/03/13 09:12:31;;;;;;;22.90;15.43;;;;;;;-145.18;100.00;47254.25;4931766;28;20420;-67
2022/03/13 09:14:58;;;;;;;27.40;15.50;;;;;;;-145.18;100.00;47258.16;4930894;28;20282;-67
2022/03/13 09:17:23;;;;;;;23.97;15.37;;;;;;;-145.18;100.00;47250.34;4931921;28;20048;-67
2022/03/13 09:19:48;;;;;;;25.83;15.50;;;;;;;-145.18;100.00;47256.22;4930525;28;20281;-67
2022/03/13 09:22:14;;;;;;;24.07;15.07;;;;;;;-145.18;100.00;47258.16;4931295;28;20497;-67
2022/03/13 09:24:40;;;;;;;30.43;16.27;;;;;;;-145.18;100.00;47234.72;4930978;28;20040;-67
2022/03/13 09:27:05;;;;;;;29.83;15.47;;;;;;;-145.18;100.00;47254.25;4931423;28;20400;-67
2022/03/13 09:29:31;;;;;;;23.37;15.77;;;;;;;-145.18;100.00;47234.72;4930676;28;20495;-67
2022/03/13 09:31:56;;;;;;;23.77;15.67;;;;;;;-145.18;100.00;47238.63;4931570;28;20043;-67
2022/03/13 09:34:21;;;;;;;30.23;15.40;;;;;;;-145.18;100.00;47236.66;4930634;28;20044;-67
2022/03/13 09:36:47;;;;;;;24.20;15.23;;;;;;;-145.18;100.00;47234.72;4931129;28;20047;-67
2022/03/13 09:39:12;;;;;;;20.50;14.17;;;;;;;-145.18;100.00;47211.28;4930859;28;20048;-67
2022/03/13 09:41:38;;;;;;;26.03;14.57;;;;;;;-145.18;100.00;47197.59;4930854;28;20071;-67
2022/03/13 09:44:06;;;;;;;22.37;14.40;;;;;;;-145.18;100.00;47201.50;4930124;28;20051;-67
2022/03/13 09:46:34;;;;;;;22.53;14.37;;;;;;;-145.18;100.00;47217.13;4931565;28;20456;-67
2022/03/13 09:49:00;;;;;;;24.30;14.43;;;;;;;-145.18;100.00;47191.75;4930295;28;20747;-67
2022/03/13 09:51:25;;;;;;;21.13;13.60;;;;;;;-145.18;100.00;47195.66;4930776;28;20284;-67
2022/03/13 09:53:51;;;;;;;18.83;13.20;;;;;;;-145.18;100.00;47191.75;4930116;28;20043;-67
2022/03/13 09:56:16;;;;;;;20.90;13.90;;;;;;;-145.18;100.00;47178.06;4930267;28;20043;-67
2022/03/13 09:58:44;;;;;;;19.43;13.40;;;;;;;-145.18;100.00;47191.75;4930357;28;20401;-67
2022/03/13 10:01:10;;;;;;;23.27;13.60;;;;;;;-145.18;100.00;47201.50;4929494;28;20052;-67
2022/03/13 10:03:36;;;;;;;19.07;12.33;;;;;;;-145.18;100.00;47201.50;4930850;28;20047;-67
2022/03/13 10:06:02;;;;;;;20.93;13.40;;;;;;;-145.18;100.00;47187.84;4930556;28;20047;-67
2022/03/13 10:08:29;;;;;;;25.10;12.23;;;;;;;-145.18;100.00;47180.03;4929851;28;20122;-67
2022/03/13 10:10:55;;;;;;;20.77;12.47;;;;;;;-145.18;100.00;47176.09;4929934;28;20046;-67
2022/03/13 10:13:38;;;;;;;19.07;12.30;;;;;;;-145.18;100.00;47183.94;4930346;28;20058;-67
2022/03/13 10:16:05;;;;;;;21.70;12.23;;;;;;;-145.18;100.00;47180.03;4930034;28;20134;-67
2022/03/13 10:18:32;;;;;;;17.47;12.63;;;;;;;-145.18;100.00;47191.75;4930070;28;20047;-67
2022/03/13 10:21:05;;;;;;;22.67;13.60;;;;;;;-145.18;100.00;47185.88;4929941;28;20040;-67
2022/03/13 10:23:31;;;;;;;18.00;11.40;;;;;;;-145.18;100.00;47187.84;4929907;28;20089;-67
2022/03/13 10:25:56;;;;;;;16.20;12.13;;;;;;;-145.18;100.00;47180.03;4929607;28;20512;-67
2022/03/13 10:28:40;;;;;;;17.40;12.37;;;;;;;-145.18;100.00;47152.66;4930216;28;20048;-67
2022/03/13 10:31:15;;;;;;;23.17;12.57;;;;;;;-145.18;100.00;47170.25;4930151;28;20374;-67
2022/03/13 10:33:43;;;;;;;19.92;12.93;;;;;;;-145.18;100.00;47168.28;4929929;28;20049;-67
2022/03/13 10:36:18;;;;;;;17.80;12.07;;;;;;;-145.18;100.00;47166.34;4927170;28;20051;-67
2022/03/13 10:38:45;;;;;;;17.77;12.10;;;;;;;-145.18;100.00;47164.38;4930233;28;20472;-67
2022/03/13 10:41:12;;;;;;;18.50;12.57;;;;;;;-145.18;100.00;47158.53;4930025;28;20047;-67
2022/03/13 10:43:49;;;;;;;16.43;11.90;;;;;;;-145.18;100.00;47142.91;4929801;28;20062;-67
2022/03/13 10:46:30;;;;;;;16.37;11.03;;;;;;;-145.18;100.00;47117.50;4919903;29;20040;-67
2022/03/13 10:48:57;;;;;;;18.70;11.97;;;;;;;-145.18;100.00;47148.75;4929345;29;20070;-67
2022/03/13 10:51:36;;;;;;;18.60;11.73;;;;;;;-145.18;100.00;47140.94;4929827;29;20032;-67
2022/03/13 10:54:03;;;;;;;19.00;12.40;;;;;;;-145.18;100.00;47148.75;4929275;29;20036;-67
2022/03/13 10:56:29;;;;;;;17.37;11.30;;;;;;;-145.18;100.00;47164.38;4929980;29;20143;-67
2022/03/13 10:58:54;;;;;;;20.07;12.77;;;;;;;-145.18;100.00;47137.03;4929249;29;20453;-67